Time;durP1;ratioP1;P1;durP2;ratioP2;P2;SDS_P1;SDS_P2;PMS_P1;PMS_P2;Temp;Humidity;BMP_temperature;BMP_pressure;BME280_temperature;BME280_humidity;BME280_pressure;Samples;Min_cycle;Max_cycle;Signal;HPM_P1;HPM_P2
2022/07/06 00:00:53;;;;;;;1.50;1.00;;;16.20;89.00;;;;;;4988948;28;20487;-77
2022/07/06 00:03:21;;;;;;;1.47;1.00;;;16.20;89.30;;;;;;4995983;28;20853;-76
2022/07/06 00:05:48;;;;;;;1.47;1.00;;;16.10;89.60;;;;;;4989074;28;20596;-76
2022/07/06 00:08:15;;;;;;;1.50;1.03;;;16.10;89.80;;;;;;5008190;28;20567;-76
2022/07/06 00:10:43;;;;;;;1.50;1.00;;;16.10;89.50;;;;;;5007226;28;20460;-76
2022/07/06 00:13:10;;;;;;;1.50;1.00;;;16.00;89.60;;;;;;4978255;28;20551;-76
2022/07/06 00:15:37;;;;;;;1.47;0.90;;;16.00;89.60;;;;;;4988737;28;20522;-77
2022/07/06 00:18:04;;;;;;;1.47;1.00;;;16.00;89.50;;;;;;4990105;28;20476;-76
2022/07/06 00:20:32;;;;;;;1.50;1.00;;;16.00;89.70;;;;;;4989275;28;21028;-76
2022/07/06 00:22:59;;;;;;;1.50;1.00;;;15.90;89.50;;;;;;5011320;28;20519;-77
2022/07/06 00:25:26;;;;;;;1.50;1.00;;;15.90;90.20;;;;;;5010073;28;20492;-77
2022/07/06 00:27:53;;;;;;;1.50;1.00;;;15.80;90.30;;;;;;5011526;28;20853;-76
2022/07/06 00:30:20;;;;;;;1.50;1.00;;;15.70;89.90;;;;;;5008679;28;20487;-77
2022/07/06 00:32:47;;;;;;;1.50;0.93;;;15.70;90.30;;;;;;5001715;28;20896;-76
2022/07/06 00:35:15;;;;;;;1.43;0.90;;;15.70;90.20;;;;;;4989375;28;21175;-76
2022/07/06 00:37:43;;;;;;;1.47;0.90;;;15.70;89.80;;;;;;4993141;28;20484;-76
2022/07/06 00:40:11;;;;;;;1.50;1.00;;;15.70;90.50;;;;;;4989362;28;20623;-77
2022/07/06 00:42:42;;;;;;;1.47;1.00;;;15.60;90.60;;;;;;4989423;28;20539;-76
2022/07/06 00:45:10;;;;;;;1.50;1.00;;;15.60;90.00;;;;;;4989729;28;20524;-76
2022/07/06 00:47:37;;;;;;;1.47;0.90;;;15.60;90.40;;;;;;4993383;28;20901;-76
2022/07/06 00:50:13;;;;;;;1.47;0.90;;;15.60;90.10;;;;;;4990202;28;20461;-76
2022/07/06 00:52:41;;;;;;;1.43;1.00;;;15.60;90.30;;;;;;5002541;28;20987;-76
2022/07/06 00:55:11;;;;;;;1.50;0.90;;;15.50;89.90;;;;;;4993367;28;20545;-76
2022/07/06 00:57:38;;;;;;;1.50;1.00;;;15.50;90.00;;;;;;4993022;28;20492;-75
2022/07/06 01:00:06;;;;;;;1.47;0.97;;;15.50;91.40;;;;;;4989861;28;20461;-75
2022/07/06 01:02:34;;;;;;;1.47;1.00;;;15.40;91.20;;;;;;4997716;28;20508;-75
2022/07/06 01:05:01;;;;;;;1.47;1.00;;;15.40;91.50;;;;;;4989818;28;20465;-75
2022/07/06 01:07:29;;;;;;;1.47;0.90;;;15.30;91.70;;;;;;4992893;28;21066;-76
2022/07/06 01:09:56;;;;;;;1.50;1.00;;;15.30;91.90;;;;;;4991039;28;20834;-75
2022/07/06 01:12:25;;;;;;;1.47;1.00;;;15.30;91.60;;;;;;4989367;28;20461;-75
2022/07/06 01:14:52;;;;;;;1.47;1.00;;;15.20;91.80;;;;;;4989651;28;20552;-75
2022/07/06 01:17:19;;;;;;;1.47;0.90;;;15.20;92.40;;;;;;5001488;28;20478;-75
2022/07/06 01:19:46;;;;;;;1.50;1.00;;;15.20;92.40;;;;;;5007525;28;20492;-76
2022/07/06 01:22:15;;;;;;;1.50;1.00;;;15.10;92.30;;;;;;4991156;28;20508;-76
2022/07/06 01:24:42;;;;;;;1.40;1.00;;;15.10;92.20;;;;;;4992642;28;20544;-76
2022/07/06 01:27:09;;;;;;;1.40;1.00;;;15.10;92.50;;;;;;4989431;28;21091;-76
2022/07/06 01:29:36;;;;;;;1.47;1.00;;;15.10;92.20;;;;;;4988626;28;20581;-76
2022/07/06 01:32:03;;;;;;;1.50;1.00;;;15.10;92.20;;;;;;4987639;28;20914;-76
2022/07/06 01:34:30;;;;;;;1.47;1.00;;;15.10;92.40;;;;;;4987740;28;20945;-76
2022/07/06 01:36:58;;;;;;;1.47;1.00;;;15.00;92.90;;;;;;4989877;28;20477;-76
2022/07/06 01:39:26;;;;;;;1.50;1.00;;;15.00;92.70;;;;;;4980578;28;21005;-75
2022/07/06 01:41:53;;;;;;;1.47;0.97;;;14.90;92.90;;;;;;4985330;28;20732;-76
2022/07/06 01:44:20;;;;;;;1.50;1.00;;;14.90;93.00;;;;;;4998138;28;20556;-76
2022/07/06 01:46:47;;;;;;;1.47;1.00;;;14.90;93.40;;;;;;4992730;28;20493;-76
2022/07/06 01:49:13;;;;;;;1.43;1.00;;;14.90;93.00;;;;;;4992692;28;20519;-76
2022/07/06 01:51:41;;;;;;;1.50;0.90;;;14.80;94.40;;;;;;4988425;28;20484;-76
2022/07/06 01:54:08;;;;;;;1.47;1.00;;;14.80;94.10;;;;;;5000740;28;20492;-75
2022/07/06 01:56:36;;;;;;;1.50;1.00;;;14.70;93.70;;;;;;4992466;28;20499;-76
2022/07/06 01:59:03;;;;;;;1.50;0.90;;;14.80;93.40;;;;;;4992722;28;20472;-75
2022/07/06 02:01:30;;;;;;;1.47;1.00;;;14.80;94.10;;;;;;4986194;28;20495;-76
2022/07/06 02:03:57;;;;;;;1.50;1.00;;;14.70;93.90;;;;;;4992394;28;20477;-76
2022/07/06 02:06:24;;;;;;;1.50;1.00;;;14.70;94.30;;;;;;4979749;28;20496;-75
2022/07/06 02:08:53;;;;;;;1.50;1.00;;;14.70;94.20;;;;;;4991354;28;20469;-76
2022/07/06 02:11:20;;;;;;;1.50;1.00;;;14.70;94.10;;;;;;4987664;28;20479;-77
2022/07/06 02:13:49;;;;;;;1.50;1.00;;;14.70;94.40;;;;;;5002269;28;20823;-76
2022/07/06 02:16:16;;;;;;;1.43;1.00;;;14.60;94.30;;;;;;4986230;28;20483;-75
2022/07/06 02:18:43;;;;;;;1.47;1.00;;;14.60;94.30;;;;;;5003005;28;20515;-75
2022/07/06 02:21:10;;;;;;;1.50;1.10;;;14.60;94.50;;;;;;4991828;28;20467;-75
2022/07/06 02:23:37;;;;;;;1.50;1.00;;;14.60;94.60;;;;;;4991727;28;20499;-74
2022/07/06 02:26:04;;;;;;;1.50;1.00;;;14.50;94.20;;;;;;4987112;28;20500;-75
2022/07/06 02:28:31;;;;;;;1.47;1.00;;;14.50;94.30;;;;;;5017833;28;20500;-75
2022/07/06 02:31:00;;;;;;;1.50;1.00;;;14.50;94.90;;;;;;4992021;28;20457;-75
2022/07/06 02:33:27;;;;;;;1.50;1.03;;;14.40;94.90;;;;;;4977234;28;20493;-75
2022/07/06 02:35:54;;;;;;;1.50;1.10;;;14.40;94.90;;;;;;4979817;28;20572;-75
2022/07/06 02:38:21;;;;;;;1.50;1.00;;;14.40;94.70;;;;;;5004367;28;20501;-75
2022/07/06 02:40:48;;;;;;;1.50;1.00;;;14.30;94.50;;;;;;4990488;28;20469;-75
2022/07/06 02:43:15;;;;;;;1.50;1.10;;;14.30;95.20;;;;;;4991376;28;20910;-75
2022/07/06 02:45:42;;;;;;;1.50;1.00;;;14.30;95.40;;;;;;4991113;28;20504;-76
2022/07/06 02:48:10;;;;;;;1.47;1.00;;;14.30;94.80;;;;;;4980054;28;20531;-75
2022/07/06 02:50:38;;;;;;;1.50;1.10;;;14.30;95.60;;;;;;4991230;28;20461;-75
2022/07/06 02:53:04;;;;;;;1.47;0.90;;;14.20;95.70;;;;;;4992086;28;20576;-75
2022/07/06 02:55:32;;;;;;;1.50;1.00;;;14.20;95.50;;;;;;4990080;28;20468;-76
2022/07/06 02:57:59;;;;;;;1.50;1.10;;;14.20;95.70;;;;;;4996745;28;20511;-75
2022/07/06 03:00:26;;;;;;;1.47;1.00;;;14.10;95.00;;;;;;4991819;28;20888;-75
2022/07/06 03:02:53;;;;;;;1.50;1.00;;;14.10;95.70;;;;;;5006892;28;20484;-76
2022/07/06 03:05:22;;;;;;;1.50;1.00;;;14.10;95.40;;;;;;5007132;28;20489;-75
2022/07/06 03:07:49;;;;;;;1.47;1.00;;;14.10;95.80;;;;;;4996164;28;20487;-75
2022/07/06 03:10:16;;;;;;;1.50;1.10;;;14.10;96.20;;;;;;4990782;28;20851;-75
2022/07/06 03:12:43;;;;;;;1.50;1.00;;;14.00;96.30;;;;;;4992461;28;20655;-76
2022/07/06 03:15:12;;;;;;;1.47;1.00;;;14.00;96.60;;;;;;4991571;28;20889;-76
2022/07/06 03:17:39;;;;;;;1.47;1.00;;;14.00;96.40;;;;;;4995310;28;20927;-75
2022/07/06 03:20:07;;;;;;;1.50;1.00;;;14.00;96.50;;;;;;4990903;28;20577;-76
2022/07/06 03:22:35;;;;;;;1.47;1.03;;;13.90;96.30;;;;;;5004811;28;20853;-75
2022/07/06 03:25:03;;;;;;;1.50;1.00;;;13.90;96.50;;;;;;4992878;28;20463;-76
2022/07/06 03:27:30;;;;;;;1.47;1.00;;;13.90;96.80;;;;;;4993674;28;20650;-75
2022/07/06 03:29:57;;;;;;;1.50;1.00;;;13.90;97.10;;;;;;4993836;28;20493;-74
2022/07/06 03:32:24;;;;;;;1.50;1.00;;;13.90;97.10;;;;;;4993044;28;20461;-76
2022/07/06 03:34:51;;;;;;;1.50;1.00;;;13.90;97.20;;;;;;4991924;28;20976;-76
2022/07/06 03:37:18;;;;;;;1.47;1.00;;;13.80;97.90;;;;;;4992242;28;20490;-75
2022/07/06 03:39:47;;;;;;;1.43;1.00;;;13.80;97.40;;;;;;4992386;28;20465;-76
2022/07/06 03:42:14;;;;;;;1.50;1.00;;;13.80;97.80;;;;;;4991136;28;20485;-76
2022/07/06 03:44:41;;;;;;;1.50;1.00;;;13.80;97.80;;;;;;4990135;28;20461;-76
2022/07/06 03:47:08;;;;;;;1.50;1.00;;;13.80;97.80;;;;;;4991442;28;20549;-76
2022/07/06 03:49:35;;;;;;;1.40;1.00;;;13.80;97.50;;;;;;4994179;28;20469;-75
2022/07/06 03:52:02;;;;;;;1.43;1.00;;;13.80;97.40;;;;;;4984638;28;20460;-76
2022/07/06 03:54:29;;;;;;;1.50;1.10;;;13.80;97.30;;;;;;4990874;28;20457;-76
2022/07/06 03:56:57;;;;;;;1.50;1.10;;;13.80;97.80;;;;;;4993838;28;20503;-76
2022/07/06 03:59:24;;;;;;;1.50;1.00;;;13.80;97.90;;;;;;4989722;28;20457;-76
2022/07/06 04:01:52;;;;;;;1.47;1.00;;;13.80;97.40;;;;;;4989466;28;20500;-75
2022/07/06 04:04:19;;;;;;;1.50;1.00;;;13.80;98.10;;;;;;4991009;28;20461;-76
2022/07/06 04:06:47;;;;;;;1.43;1.00;;;13.80;98.20;;;;;;4987527;28;20484;-76
2022/07/06 04:09:14;;;;;;;1.50;1.00;;;13.80;98.00;;;;;;4995514;28;20462;-75
2022/07/06 04:11:41;;;;;;;1.47;1.00;;;13.80;97.60;;;;;;4989661;28;20465;-76
2022/07/06 04:14:09;;;;;;;1.50;1.00;;;13.80;98.20;;;;;;4989691;28;20824;-75
2022/07/06 04:16:36;;;;;;;1.50;1.10;;;13.80;98.20;;;;;;4996110;28;20971;-76
2022/07/06 04:19:03;;;;;;;1.50;1.00;;;13.80;98.10;;;;;;4991594;28;20472;-77
2022/07/06 04:21:31;;;;;;;1.50;1.00;;;13.80;98.20;;;;;;4996417;28;20456;-76
2022/07/06 04:23:58;;;;;;;1.43;1.00;;;13.90;98.20;;;;;;4985657;28;20465;-77
2022/07/06 04:26:25;;;;;;;1.50;1.00;;;13.90;98.20;;;;;;4987155;28;20488;-77
2022/07/06 04:28:53;;;;;;;1.50;1.00;;;13.90;98.20;;;;;;4990238;28;20585;-77
2022/07/06 04:31:21;;;;;;;1.50;1.00;;;13.90;98.20;;;;;;4966795;28;20516;-77
2022/07/06 04:33:49;;;;;;;1.40;1.00;;;13.90;98.20;;;;;;4996688;28;20461;-77
2022/07/06 04:36:16;;;;;;;1.50;1.00;;;14.00;98.20;;;;;;5001708;22;20930;-80
2022/07/06 04:38:43;;;;;;;1.50;0.90;;;14.00;98.20;;;;;;4991178;28;20463;-79
2022/07/06 04:41:10;;;;;;;1.40;0.90;;;14.00;98.20;;;;;;4991472;28;20496;-80
2022/07/06 04:43:38;;;;;;;1.43;1.00;;;14.00;98.20;;;;;;4991856;28;20504;-80
2022/07/06 04:46:05;;;;;;;1.40;1.00;;;14.10;98.20;;;;;;4991240;28;20481;-80
2022/07/06 04:49:04;;;;;;;1.43;1.00;;;14.20;98.20;;;;;;4992542;28;20461;-78
2022/07/06 04:51:32;;;;;;;1.47;1.00;;;14.40;98.20;;;;;;4989935;28;20511;-78
2022/07/06 04:54:04;;;;;;;1.50;1.00;;;14.60;98.20;;;;;;4991468;28;21003;-80
2022/07/06 04:56:32;;;;;;;1.50;1.00;;;14.80;98.20;;;;;;4992317;28;20477;-80
2022/07/06 04:58:59;;;;;;;1.50;1.00;;;15.10;96.50;;;;;;4990623;28;20469;-78
2022/07/06 05:01:29;;;;;;;1.50;1.00;;;15.20;95.60;;;;;;4985226;28;20472;-80
2022/07/06 05:04:14;;;;;;;1.47;1.00;;;15.20;95.20;;;;;;4996992;28;20577;-80
2022/07/06 05:06:41;;;;;;;1.43;1.00;;;15.20;95.30;;;;;;4987375;28;20490;-78
2022/07/06 05:09:08;;;;;;;1.50;1.10;;;15.30;95.30;;;;;;4997813;28;20472;-78
2022/07/06 05:11:37;;;;;;;1.47;1.00;;;15.30;96.00;;;;;;4988167;28;20995;-78
2022/07/06 05:14:04;;;;;;;1.50;1.00;;;15.50;95.80;;;;;;4989898;28;20481;-79
2022/07/06 05:16:32;;;;;;;1.50;0.90;;;15.70;95.50;;;;;;4983989;28;20554;-79
2022/07/06 05:18:59;;;;;;;1.43;0.90;;;16.00;94.00;;;;;;4994125;28;20472;-78
2022/07/06 05:22:03;;;;;;;1.47;1.00;;;16.20;92.90;;;;;;4995712;28;20457;-77
2022/07/06 05:24:43;;;;;;;1.50;0.90;;;16.20;93.00;;;;;;5002456;28;20462;-77
2022/07/06 05:27:11;;;;;;;1.50;1.00;;;16.30;92.70;;;;;;4984681;28;20477;-79
2022/07/06 05:29:39;;;;;;;1.47;0.90;;;16.40;92.80;;;;;;4991660;28;21036;-78
2022/07/06 05:32:07;;;;;;;1.50;0.90;;;16.60;92.30;;;;;;4998996;28;20483;-78
2022/07/06 05:34:36;;;;;;;1.50;1.00;;;16.60;91.60;;;;;;5004578;28;20467;-80
2022/07/06 05:37:30;;;;;;;1.50;0.93;;;16.60;91.20;;;;;;4994195;28;20599;-78
2022/07/06 05:39:57;;;;;;;1.50;1.00;;;16.70;90.70;;;;;;4995879;28;20475;-78
2022/07/06 05:42:24;;;;;;;1.50;0.90;;;16.70;91.00;;;;;;4999915;28;20527;-78
2022/07/06 05:44:55;;;;;;;1.50;0.90;;;16.70;91.40;;;;;;4993076;28;20980;-78
2022/07/06 05:50:17;;;;;;;1.50;0.90;;;16.80;91.00;;;;;;4989311;28;20535;-79
2022/07/06 05:52:57;;;;;;;1.50;0.90;;;16.90;90.80;;;;;;4999236;28;20897;-79
2022/07/06 05:55:24;;;;;;;1.50;0.90;;;16.90;91.00;;;;;;5010759;28;20905;-79
2022/07/06 05:57:53;;;;;;;1.50;0.90;;;17.10;90.70;;;;;;4976517;28;20486;-77
2022/07/06 06:00:30;;;;;;;1.50;0.90;;;17.10;90.60;;;;;;5000712;28;20468;-77
2022/07/06 06:02:58;;;;;;;1.43;0.90;;;17.20;90.30;;;;;;4994146;28;20567;-78
2022/07/06 06:05:26;;;;;;;1.47;0.90;;;17.20;90.40;;;;;;4993064;28;20512;-78
2022/07/06 06:07:57;;;;;;;1.50;1.00;;;17.30;89.30;;;;;;4980255;28;20495;-79
2022/07/06 06:10:25;;;;;;;1.50;0.90;;;17.40;89.60;;;;;;4997736;28;20465;-79
2022/07/06 06:12:52;;;;;;;1.50;0.90;;;17.50;89.90;;;;;;4988867;28;20518;-78
2022/07/06 06:15:37;;;;;;;1.50;1.00;;;17.70;89.50;;;;;;4991789;28;21020;-79
2022/07/06 06:18:18;;;;;;;1.47;0.90;;;17.90;89.80;;;;;;4994980;28;20469;-79
2022/07/06 06:20:49;;;;;;;1.50;0.90;;;18.10;89.00;;;;;;5003841;28;20477;-77
2022/07/06 06:23:23;;;;;;;1.43;1.00;;;18.30;88.00;;;;;;4996971;28;20735;-79
2022/07/06 06:25:50;;;;;;;1.47;0.90;;;18.40;87.80;;;;;;4993436;28;20484;-78
2022/07/06 06:28:18;;;;;;;1.43;0.90;;;18.60;87.70;;;;;;4996561;28;21019;-77
2022/07/06 06:30:45;;;;;;;1.50;1.00;;;18.90;87.30;;;;;;5006537;28;20460;-79
2022/07/06 06:33:15;;;;;;;1.50;0.90;;;19.10;86.60;;;;;;5006874;28;20456;-79
2022/07/06 06:36:32;;;;;;;1.43;0.90;;;19.20;86.10;;;;;;4997404;28;20503;-77
2022/07/06 06:39:04;;;;;;;1.50;1.00;;;19.50;85.30;;;;;;4948343;28;21086;-78
2022/07/06 06:41:32;;;;;;;1.47;0.90;;;19.70;84.20;;;;;;5001556;28;20469;-78
2022/07/06 06:43:59;;;;;;;1.47;0.90;;;19.70;83.80;;;;;;5003039;28;20532;-78
2022/07/06 06:46:26;;;;;;;1.43;0.90;;;19.70;84.10;;;;;;4993157;28;20773;-77
2022/07/06 06:48:54;;;;;;;1.50;0.90;;;19.80;83.70;;;;;;4993542;28;20472;-80
2022/07/06 06:51:21;;;;;;;1.47;0.90;;;19.90;83.00;;;;;;4993809;28;20461;-79
2022/07/06 06:53:49;;;;;;;1.40;0.90;;;20.00;83.20;;;;;;4993428;28;20544;-80
2022/07/06 06:56:18;;;;;;;1.47;0.90;;;20.10;82.50;;;;;;5005676;28;20548;-79
2022/07/06 06:58:55;;;;;;;1.43;0.90;;;20.10;83.20;;;;;;5001512;28;20469;-80
2022/07/06 07:01:38;;;;;;;1.50;0.87;;;20.10;82.80;;;;;;4994909;28;20503;-80
2022/07/06 07:04:11;;;;;;;1.63;1.10;;;20.10;82.40;;;;;;4997388;28;20512;-79
2022/07/06 07:06:41;;;;;;;1.50;0.90;;;20.10;82.30;;;;;;5001709;28;20485;-79
2022/07/06 07:09:37;;;;;;;1.50;0.90;;;20.00;83.00;;;;;;4992865;28;20472;-79
2022/07/06 07:12:14;;;;;;;1.43;0.90;;;20.00;83.30;;;;;;4993096;28;20828;-79
2022/07/06 07:14:53;;;;;;;1.47;0.90;;;19.80;83.10;;;;;;5007105;28;20506;-80
2022/07/06 07:17:20;;;;;;;1.50;0.90;;;19.80;83.10;;;;;;4986474;28;20473;-80
2022/07/06 07:19:48;;;;;;;1.50;0.90;;;19.80;83.00;;;;;;5003002;28;20461;-80
2022/07/06 07:22:15;;;;;;;1.47;0.90;;;19.80;83.90;;;;;;4995549;28;20514;-79
2022/07/06 07:24:45;;;;;;;1.43;0.90;;;19.80;83.60;;;;;;5005440;28;20495;-79
2022/07/06 07:27:16;;;;;;;1.47;0.90;;;19.80;83.40;;;;;;5001862;28;20484;-79
2022/07/06 07:29:43;;;;;;;1.47;0.90;;;19.80;83.50;;;;;;4993088;28;20487;-80
2022/07/06 07:32:11;;;;;;;1.50;0.90;;;19.80;84.00;;;;;;5006350;28;20747;-80
2022/07/06 07:34:47;;;;;;;1.47;0.90;;;19.80;83.80;;;;;;4997429;28;20556;-80
2022/07/06 07:37:14;;;;;;;1.47;0.90;;;19.90;84.00;;;;;;4998325;28;20909;-81
2022/07/06 07:39:50;;;;;;;1.50;0.90;;;20.00;83.00;;;;;;4999969;28;20465;-78
2022/07/06 07:42:19;;;;;;;1.47;0.90;;;20.10;82.30;;;;;;4992219;28;20868;-78
2022/07/06 07:44:46;;;;;;;1.47;0.90;;;20.10;82.70;;;;;;4991010;28;20707;-79
2022/07/06 07:47:14;;;;;;;1.47;0.90;;;20.40;81.60;;;;;;4991979;28;20770;-79
2022/07/06 07:49:41;;;;;;;1.40;0.90;;;20.50;82.10;;;;;;5008427;28;20468;-79
2022/07/06 07:52:12;;;;;;;1.47;0.90;;;20.60;81.10;;;;;;4995441;28;20561;-79
2022/07/06 07:54:45;;;;;;;1.47;0.83;;;20.60;80.70;;;;;;5004420;28;20806;-79
2022/07/06 07:57:27;;;;;;;1.43;0.90;;;20.70;81.10;;;;;;4992739;28;20508;-79
2022/07/06 08:06:25;;;;;;;1.50;0.90;;;21.10;79.00;;;;;;4988078;23;20541;-79
2022/07/06 08:08:52;;;;;;;1.90;1.30;;;21.30;79.30;;;;;;5024501;28;20464;-80
2022/07/06 08:11:20;;;;;;;1.47;0.90;;;21.40;77.90;;;;;;5030050;28;20542;-79
2022/07/06 08:13:49;;;;;;;1.43;0.90;;;21.40;77.60;;;;;;5028972;28;20478;-77
2022/07/06 08:16:16;;;;;;;1.47;0.90;;;21.50;78.10;;;;;;5023310;28;20483;-79
2022/07/06 08:18:43;;;;;;;1.47;0.83;;;21.80;77.70;;;;;;5038409;28;20550;-77
2022/07/06 08:21:11;;;;;;;1.43;0.87;;;22.00;77.50;;;;;;5016979;28;20475;-77
2022/07/06 08:23:38;;;;;;;1.47;0.90;;;22.10;76.40;;;;;;5031200;28;20487;-77
2022/07/06 08:26:06;;;;;;;1.50;0.90;;;22.10;74.60;;;;;;5027385;28;20479;-78
2022/07/06 08:28:33;;;;;;;1.43;0.90;;;22.10;75.40;;;;;;5029930;28;20460;-78
2022/07/06 08:31:02;;;;;;;1.43;0.80;;;22.00;76.00;;;;;;5020515;28;20494;-78
2022/07/06 08:33:37;;;;;;;1.47;0.87;;;22.10;75.70;;;;;;5043078;28;20459;-77
2022/07/06 08:36:07;;;;;;;1.47;0.90;;;22.10;75.10;;;;;;5018782;28;21076;-77
2022/07/06 08:38:35;;;;;;;1.43;0.90;;;22.10;75.50;;;;;;5044230;28;20554;-77
2022/07/06 08:41:03;;;;;;;1.47;0.80;;;22.10;74.80;;;;;;5018667;28;20471;-77
2022/07/06 08:43:30;;;;;;;1.50;0.90;;;22.00;74.40;;;;;;5041787;28;21099;-77
2022/07/06 08:45:57;;;;;;;1.47;0.87;;;22.10;74.50;;;;;;5026910;28;20494;-76
2022/07/06 08:48:28;;;;;;;1.43;0.90;;;22.10;75.10;;;;;;5026918;28;20956;-76
2022/07/06 08:50:56;;;;;;;1.43;0.87;;;22.20;75.40;;;;;;5015408;28;20463;-76
2022/07/06 08:53:25;;;;;;;1.43;0.90;;;22.20;74.10;;;;;;5026666;28;20463;-76
2022/07/06 08:55:52;;;;;;;1.50;0.90;;;22.10;74.20;;;;;;5015961;28;21039;-76
2022/07/06 08:58:21;;;;;;;1.47;0.90;;;22.10;73.40;;;;;;5025273;28;20845;-76
2022/07/06 09:00:49;;;;;;;1.43;0.90;;;22.10;73.40;;;;;;5026804;28;20523;-76
2022/07/06 09:03:17;;;;;;;1.50;0.90;;;22.10;72.50;;;;;;5025379;28;20601;-77
2022/07/06 09:05:47;;;;;;;1.43;0.80;;;22.00;72.60;;;;;;5025358;28;20490;-77
2022/07/06 09:08:15;;;;;;;1.47;0.90;;;21.90;74.00;;;;;;5014597;28;20484;-78
2022/07/06 09:10:42;;;;;;;1.47;0.90;;;21.80;73.60;;;;;;5024268;28;20474;-77
2022/07/06 09:13:10;;;;;;;1.50;0.90;;;21.80;73.30;;;;;;5015603;28;20479;-76
2022/07/06 09:15:38;;;;;;;1.43;0.90;;;21.80;72.50;;;;;;5026429;28;20866;-75
2022/07/06 09:18:06;;;;;;;1.47;0.80;;;21.80;71.60;;;;;;5013237;28;20480;-75
2022/07/06 09:20:40;;;;;;;1.47;0.80;;;21.80;72.40;;;;;;5026055;28;20459;-77
2022/07/06 09:23:10;;;;;;;1.47;0.90;;;21.90;72.10;;;;;;5030084;28;20821;-75
2022/07/06 09:25:38;;;;;;;1.43;0.90;;;21.90;72.60;;;;;;5027679;28;20811;-75
2022/07/06 09:28:06;;;;;;;1.43;0.90;;;21.90;73.10;;;;;;5021542;28;20582;-76
2022/07/06 09:30:39;;;;;;;1.50;0.90;;;21.80;74.10;;;;;;5023673;28;20471;-74
2022/07/06 09:33:09;;;;;;;1.50;0.90;;;21.70;74.70;;;;;;5014039;28;20829;-75
2022/07/06 09:35:38;;;;;;;1.50;0.90;;;21.50;74.70;;;;;;5024161;28;21382;-74
2022/07/06 09:38:07;;;;;;;1.47;0.90;;;21.40;75.30;;;;;;5028562;28;20545;-78
2022/07/06 09:40:38;;;;;;;1.40;0.90;;;21.30;76.70;;;;;;5025659;28;20459;-75
2022/07/06 09:43:14;;;;;;;1.50;0.90;;;21.20;76.90;;;;;;5026278;28;20490;-78
2022/07/06 09:45:43;;;;;;;1.47;0.90;;;21.20;76.90;;;;;;5025268;28;20900;-75
2022/07/06 09:48:13;;;;;;;1.50;0.90;;;21.20;77.20;;;;;;5025018;28;20529;-75
2022/07/06 09:50:42;;;;;;;1.43;0.90;;;21.20;76.30;;;;;;5026675;28;20456;-77
2022/07/06 09:53:28;;;;;;;1.50;0.90;;;21.20;76.70;;;;;;5027460;28;20549;-76
2022/07/06 09:55:59;;;;;;;1.43;0.90;;;21.20;76.20;;;;;;5031152;28;20475;-76
2022/07/06 09:58:37;;;;;;;1.43;0.90;;;21.30;76.00;;;;;;5029525;28;20852;-75
2022/07/06 10:01:08;;;;;;;1.47;0.90;;;21.50;75.80;;;;;;5024396;28;20451;-75
2022/07/06 10:03:35;;;;;;;1.47;0.90;;;21.80;74.20;;;;;;5030862;28;20635;-76
2022/07/06 10:06:07;;;;;;;1.40;0.87;;;22.30;72.40;;;;;;5017164;28;20492;-76
2022/07/06 10:08:37;;;;;;;1.43;0.80;;;22.90;72.80;;;;;;5039200;28;20466;-74
2022/07/06 10:11:14;;;;;;;1.47;0.90;;;23.30;71.90;;;;;;5036519;28;20502;-77
2022/07/06 10:17:13;;;;;;;1.47;0.90;;;24.00;70.00;;;;;;5019955;28;21029;-78
2022/07/06 10:19:50;;;;;;;1.50;0.90;;;24.30;69.20;;;;;;5036266;28;20447;-76
2022/07/06 10:22:19;;;;;;;1.47;0.80;;;24.60;68.10;;;;;;5025691;28;21100;-77
2022/07/06 10:24:50;;;;;;;1.50;0.90;;;24.80;67.30;;;;;;5043531;28;20479;-78
2022/07/06 10:27:19;;;;;;;1.50;0.80;;;25.00;67.90;;;;;;5020898;28;20498;-76
2022/07/06 10:29:56;;;;;;;1.47;0.80;;;25.30;66.70;;;;;;5032107;28;20529;-78
2022/07/06 10:32:24;;;;;;;1.47;0.80;;;25.40;66.30;;;;;;5026123;28;20541;-77
2022/07/06 10:34:59;;;;;;;1.43;0.80;;;25.60;65.70;;;;;;5038834;28;20474;-77
2022/07/06 10:37:55;;;;;;;1.60;1.33;;;25.90;64.20;;;;;;5045809;28;20507;-78
2022/07/06 10:43:29;;;;;;;1.47;0.80;;;26.40;62.00;;;;;;5023682;28;20544;-78
2022/07/06 10:45:57;;;;;;;1.50;0.90;;;26.70;62.40;;;;;;5037998;28;20475;-77
2022/07/06 10:48:53;;;;;;;1.50;0.80;;;26.60;61.70;;;;;;5042068;28;20522;-79
2022/07/06 10:51:25;;;;;;;1.50;0.90;;;26.80;62.40;;;;;;5022087;28;20983;-77
2022/07/06 10:53:57;;;;;;;1.50;0.80;;;26.80;62.60;;;;;;5031782;28;20485;-76
2022/07/06 10:56:38;;;;;;;1.47;0.80;;;26.90;62.30;;;;;;5029838;28;20798;-76
2022/07/06 10:59:11;;;;;;;1.47;0.90;;;26.90;59.40;;;;;;5041460;28;20469;-77
2022/07/06 11:01:39;;;;;;;1.43;0.90;;;26.80;58.40;;;;;;5025547;28;20482;-77
2022/07/06 11:04:11;;;;;;;1.47;0.90;;;26.50;60.90;;;;;;5041669;28;20550;-77
2022/07/06 11:06:42;;;;;;;1.50;0.80;;;26.30;60.30;;;;;;5031325;28;20481;-76
2022/07/06 11:09:17;;;;;;;1.43;0.80;;;26.10;60.80;;;;;;5025869;28;20460;-78
2022/07/06 11:11:48;;;;;;;1.43;0.90;;;26.20;62.00;;;;;;5015125;28;20514;-78
2022/07/06 11:14:25;;;;;;;1.43;0.80;;;26.50;61.50;;;;;;5026622;28;20482;-77
2022/07/06 11:20:55;;;;;;;1.40;0.90;;;27.10;59.50;;;;;;4988246;28;20528;-78
2022/07/06 11:30:12;;;;;;;1.47;0.80;;;26.90;60.30;;;;;;4939384;28;20501;-77
2022/07/06 11:32:40;;;;;;;1.43;0.80;;;26.70;59.20;;;;;;4986861;28;20527;-76
2022/07/06 11:37:42;;;;;;;1.43;0.80;;;26.50;60.50;;;;;;5029065;28;20502;-79
2022/07/06 11:40:11;;;;;;;1.40;0.83;;;26.40;61.10;;;;;;5050203;28;21088;-77
2022/07/06 11:42:40;;;;;;;1.50;0.80;;;26.30;60.00;;;;;;5049943;28;20509;-77
2022/07/06 11:45:12;;;;;;;1.50;0.83;;;26.60;60.90;;;;;;5049049;28;20449;-76
2022/07/06 11:47:40;;;;;;;1.50;0.80;;;26.90;59.50;;;;;;5052145;28;20497;-77
2022/07/06 11:50:09;;;;;;;1.40;0.80;;;27.00;58.50;;;;;;5049607;28;20463;-78
2022/07/06 11:52:40;;;;;;;1.43;0.80;;;27.10;57.40;;;;;;5042404;28;20473;-77
2022/07/06 11:55:10;;;;;;;1.47;0.80;;;27.00;59.20;;;;;;5050617;28;20485;-76
2022/07/06 11:57:39;;;;;;;1.40;0.80;;;26.90;58.90;;;;;;5064109;28;20507;-77
2022/07/06 12:00:08;;;;;;;1.40;0.80;;;26.70;58.70;;;;;;5041968;28;20870;-78
2022/07/06 12:02:38;;;;;;;1.47;0.80;;;26.40;58.90;;;;;;5041916;28;20504;-78
2022/07/06 12:05:14;;;;;;;1.40;0.80;;;26.20;59.10;;;;;;5053584;28;20461;-77
2022/07/06 12:07:42;;;;;;;1.50;0.80;;;25.90;59.40;;;;;;5052976;28;20469;-78
2022/07/06 12:10:10;;;;;;;1.43;0.90;;;25.90;59.80;;;;;;5051264;28;20462;-78
2022/07/06 12:12:38;;;;;;;1.43;0.80;;;25.70;60.70;;;;;;5056408;28;20458;-76
2022/07/06 12:15:30;;;;;;;1.40;0.80;;;25.80;60.70;;;;;;5056965;28;20488;-77
2022/07/06 12:18:03;;;;;;;1.50;0.80;;;25.90;61.10;;;;;;5060853;28;20945;-77
2022/07/06 12:20:48;;;;;;;1.40;0.90;;;26.20;60.00;;;;;;5048376;28;20821;-77
2022/07/06 12:23:24;;;;;;;1.50;0.80;;;26.40;58.40;;;;;;5061069;28;20458;-78
2022/07/06 12:25:58;;;;;;;1.40;0.80;;;26.30;60.00;;;;;;5045169;28;20945;-77
2022/07/06 12:28:28;;;;;;;1.43;0.80;;;26.30;60.50;;;;;;5055170;28;20501;-78
2022/07/06 12:34:04;;;;;;;1.40;0.80;;;26.20;60.20;;;;;;5034843;28;20454;-78
2022/07/06 12:36:45;;;;;;;1.43;0.80;;;26.10;60.60;;;;;;5047418;28;20486;-77
2022/07/06 12:39:13;;;;;;;1.47;0.80;;;26.10;60.60;;;;;;5063437;28;20833;-78
2022/07/06 12:41:47;;;;;;;1.40;0.80;;;26.00;60.80;;;;;;5052156;28;20489;-77
2022/07/06 12:44:18;;;;;;;1.47;0.80;;;25.90;60.40;;;;;;5044323;28;20523;-78
2022/07/06 12:46:49;;;;;;;1.43;0.80;;;25.90;61.00;;;;;;5034602;28;20525;-77
2022/07/06 12:49:26;;;;;;;1.50;1.10;;;25.80;61.10;;;;;;5058108;28;20473;-76
2022/07/06 12:51:57;;;;;;;1.50;0.80;;;25.80;61.60;;;;;;5054449;28;21075;-77
2022/07/06 12:54:26;;;;;;;1.50;0.80;;;25.80;61.60;;;;;;5058000;28;22371;-78
2022/07/06 12:57:31;;;;;;;1.40;0.87;;;26.00;61.20;;;;;;5055765;28;20473;-78
2022/07/06 13:00:00;;;;;;;1.40;0.90;;;26.10;60.30;;;;;;5024194;28;20969;-78
2022/07/06 13:02:38;;;;;;;1.40;0.90;;;26.20;61.30;;;;;;5045067;28;20486;-79
2022/07/06 13:05:09;;;;;;;1.50;0.90;;;26.30;60.90;;;;;;5057294;28;20469;-78
2022/07/06 13:07:39;;;;;;;1.40;0.80;;;26.10;59.40;;;;;;5057367;28;20525;-78
2022/07/06 13:12:58;;;;;;;1.47;0.90;;;25.90;60.80;;;;;;5034587;28;20508;-77
2022/07/06 13:15:29;;;;;;;1.40;0.80;;;25.90;61.30;;;;;;5057138;28;20478;-78
2022/07/06 13:17:57;;;;;;;1.50;0.80;;;25.90;62.70;;;;;;5055513;28;20909;-77
2022/07/06 13:20:29;;;;;;;1.40;0.90;;;25.80;61.40;;;;;;5056459;28;20494;-76
2022/07/06 13:23:02;;;;;;;1.40;0.80;;;25.90;62.00;;;;;;5058125;28;20632;-80
2022/07/06 13:25:36;;;;;;;1.47;0.80;;;26.10;62.10;;;;;;5050565;28;20473;-78
2022/07/06 13:28:17;;;;;;;1.47;0.80;;;26.10;61.20;;;;;;5031183;28;21089;-79
2022/07/06 13:30:47;;;;;;;1.40;0.80;;;26.10;61.60;;;;;;5055505;28;20526;-77
2022/07/06 13:33:22;;;;;;;1.47;0.80;;;26.10;61.10;;;;;;5056598;28;20466;-78
2022/07/06 13:35:52;;;;;;;1.40;0.80;;;26.20;61.80;;;;;;5045620;28;20576;-77
2022/07/06 13:38:23;;;;;;;1.40;0.80;;;26.10;61.60;;;;;;5072237;28;20493;-79